sensor_id;sensor_type;location;lat;lon;timestamp;P1;durP1;ratioP1;P2;durP2;ratioP2
70545;SDS011;58098;51.680;5.134;2023-02-26T00:00:06;9.13;;;4.13;;
70545;SDS011;58098;51.680;5.134;2023-02-26T00:02:42;12.07;;;4.53;;
70545;SDS011;58098;51.680;5.134;2023-02-26T00:05:10;14.38;;;5.63;;
70545;SDS011;58098;51.680;5.134;2023-02-26T00:07:35;10.50;;;5.00;;
70545;SDS011;58098;51.680;5.134;2023-02-26T00:10:01;11.73;;;4.70;;
70545;SDS011;58098;51.680;5.134;2023-02-26T00:12:28;12.30;;;5.60;;
70545;SDS011;58098;51.680;5.134;2023-02-26T00:14:54;19.95;;;5.63;;
70545;SDS011;58098;51.680;5.134;2023-02-26T00:19:58;13.50;;;5.18;;
70545;SDS011;58098;51.680;5.134;2023-02-26T00:22:24;13.13;;;5.67;;
70545;SDS011;58098;51.680;5.134;2023-02-26T00:24:49;15.27;;;5.00;;
70545;SDS011;58098;51.680;5.134;2023-02-26T00:27:15;13.10;;;5.40;;
70545;SDS011;58098;51.680;5.134;2023-02-26T00:29:40;13.97;;;5.40;;
70545;SDS011;58098;51.680;5.134;2023-02-26T00:32:06;10.55;;;4.78;;
70545;SDS011;58098;51.680;5.134;2023-02-26T00:34:32;15.30;;;5.30;;
70545;SDS011;58098;51.680;5.134;2023-02-26T00:40:06;12.27;;;4.90;;
70545;SDS011;58098;51.680;5.134;2023-02-26T00:42:39;9.85;;;4.50;;
70545;SDS011;58098;51.680;5.134;2023-02-26T00:45:05;9.00;;;4.30;;
70545;SDS011;58098;51.680;5.134;2023-02-26T00:47:35;11.02;;;4.60;;
70545;SDS011;58098;51.680;5.134;2023-02-26T00:52:38;9.73;;;4.50;;
70545;SDS011;58098;51.680;5.134;2023-02-26T00:55:07;9.65;;;4.03;;
70545;SDS011;58098;51.680;5.134;2023-02-26T00:57:32;7.53;;;4.30;;
70545;SDS011;58098;51.680;5.134;2023-02-26T00:59:58;13.73;;;4.40;;
70545;SDS011;58098;51.680;5.134;2023-02-26T01:02:23;8.27;;;3.30;;
70545;SDS011;58098;51.680;5.134;2023-02-26T01:04:49;8.67;;;4.10;;
70545;SDS011;58098;51.680;5.134;2023-02-26T01:07:14;11.40;;;4.13;;
70545;SDS011;58098;51.680;5.134;2023-02-26T01:09:44;8.65;;;3.20;;
70545;SDS011;58098;51.680;5.134;2023-02-26T01:12:10;8.55;;;3.53;;
70545;SDS011;58098;51.680;5.134;2023-02-26T01:14:41;12.00;;;2.90;;
70545;SDS011;58098;51.680;5.134;2023-02-26T01:22:22;7.10;;;3.15;;
70545;SDS011;58098;51.680;5.134;2023-02-26T01:25:08;9.55;;;3.50;;
70545;SDS011;58098;51.680;5.134;2023-02-26T01:27:35;7.00;;;3.30;;
70545;SDS011;58098;51.680;5.134;2023-02-26T01:30:02;8.32;;;3.45;;
70545;SDS011;58098;51.680;5.134;2023-02-26T01:33:30;12.82;;;3.20;;
70545;SDS011;58098;51.680;5.134;2023-02-26T01:35:45;11.10;;;3.00;;
70545;SDS011;58098;51.680;5.134;2023-02-26T01:44:21;6.95;;;2.33;;
70545;SDS011;58098;51.680;5.134;2023-02-26T01:49:23;12.40;;;1.83;;
70545;SDS011;58098;51.680;5.134;2023-02-26T01:54:20;5.15;;;2.30;;
70545;SDS011;58098;51.680;5.134;2023-02-26T01:56:48;5.13;;;2.22;;
70545;SDS011;58098;51.680;5.134;2023-02-26T01:59:16;8.67;;;2.20;;
70545;SDS011;58098;51.680;5.134;2023-02-26T02:01:48;3.35;;;1.80;;
70545;SDS011;58098;51.680;5.134;2023-02-26T02:04:14;5.25;;;2.40;;
70545;SDS011;58098;51.680;5.134;2023-02-26T02:06:40;10.35;;;2.25;;
70545;SDS011;58098;51.680;5.134;2023-02-26T02:09:08;5.88;;;2.33;;
70545;SDS011;58098;51.680;5.134;2023-02-26T02:11:34;7.03;;;2.33;;
70545;SDS011;58098;51.680;5.134;2023-02-26T02:14:26;5.45;;;2.17;;
70545;SDS011;58098;51.680;5.134;2023-02-26T02:17:05;3.75;;;2.50;;
70545;SDS011;58098;51.680;5.134;2023-02-26T02:23:00;6.53;;;2.38;;
70545;SDS011;58098;51.680;5.134;2023-02-26T02:28:30;3.75;;;1.90;;
70545;SDS011;58098;51.680;5.134;2023-02-26T02:33:34;8.10;;;2.20;;
70545;SDS011;58098;51.680;5.134;2023-02-26T02:36:10;10.35;;;2.85;;
70545;SDS011;58098;51.680;5.134;2023-02-26T02:39:01;6.00;;;2.27;;
70545;SDS011;58098;51.680;5.134;2023-02-26T02:41:38;8.85;;;2.33;;
70545;SDS011;58098;51.680;5.134;2023-02-26T02:44:09;4.07;;;2.40;;
70545;SDS011;58098;51.680;5.134;2023-02-26T02:46:38;4.05;;;1.88;;
70545;SDS011;58098;51.680;5.134;2023-02-26T02:49:08;13.45;;;2.22;;
70545;SDS011;58098;51.680;5.134;2023-02-26T02:52:17;4.47;;;1.93;;
70545;SDS011;58098;51.680;5.134;2023-02-26T02:54:52;3.38;;;1.75;;
70545;SDS011;58098;51.680;5.134;2023-02-26T02:57:22;4.80;;;2.22;;
70545;SDS011;58098;51.680;5.134;2023-02-26T02:59:53;4.63;;;2.15;;
70545;SDS011;58098;51.680;5.134;2023-02-26T03:02:42;7.35;;;2.00;;
70545;SDS011;58098;51.680;5.134;2023-02-26T03:05:15;7.10;;;1.73;;
70545;SDS011;58098;51.680;5.134;2023-02-26T03:07:43;7.78;;;2.60;;
70545;SDS011;58098;51.680;5.134;2023-02-26T03:10:11;6.45;;;2.40;;
70545;SDS011;58098;51.680;5.134;2023-02-26T03:12:38;5.90;;;2.20;;
70545;SDS011;58098;51.680;5.134;2023-02-26T03:15:03;9.20;;;2.70;;
70545;SDS011;58098;51.680;5.134;2023-02-26T03:20:16;5.60;;;2.33;;
70545;SDS011;58098;51.680;5.134;2023-02-26T03:25:34;5.07;;;2.50;;
70545;SDS011;58098;51.680;5.134;2023-02-26T03:28:06;4.72;;;2.10;;
70545;SDS011;58098;51.680;5.134;2023-02-26T03:30:34;5.53;;;2.60;;
70545;SDS011;58098;51.680;5.134;2023-02-26T03:36:03;9.35;;;2.78;;
70545;SDS011;58098;51.680;5.134;2023-02-26T03:41:48;4.43;;;2.15;;
70545;SDS011;58098;51.680;5.134;2023-02-26T03:44:24;5.28;;;2.30;;
70545;SDS011;58098;51.680;5.134;2023-02-26T03:46:59;10.30;;;2.53;;
70545;SDS011;58098;51.680;5.134;2023-02-26T03:49:31;6.07;;;2.45;;
70545;SDS011;58098;51.680;5.134;2023-02-26T03:51:59;8.13;;;2.78;;
70545;SDS011;58098;51.680;5.134;2023-02-26T03:54:28;5.65;;;2.53;;
70545;SDS011;58098;51.680;5.134;2023-02-26T03:56:58;8.50;;;2.70;;
70545;SDS011;58098;51.680;5.134;2023-02-26T03:59:24;5.57;;;3.60;;
70545;SDS011;58098;51.680;5.134;2023-02-26T04:04:41;7.03;;;2.40;;
70545;SDS011;58098;51.680;5.134;2023-02-26T04:07:11;5.35;;;2.28;;
70545;SDS011;58098;51.680;5.134;2023-02-26T04:09:46;7.05;;;2.10;;
70545;SDS011;58098;51.680;5.134;2023-02-26T04:12:12;8.52;;;2.50;;
70545;SDS011;58098;51.680;5.134;2023-02-26T04:14:38;11.20;;;2.70;;
70545;SDS011;58098;51.680;5.134;2023-02-26T04:17:04;13.98;;;2.90;;
70545;SDS011;58098;51.680;5.134;2023-02-26T04:19:29;7.73;;;2.33;;
70545;SDS011;58098;51.680;5.134;2023-02-26T04:21:55;9.95;;;2.50;;
70545;SDS011;58098;51.680;5.134;2023-02-26T04:24:21;7.77;;;2.43;;
70545;SDS011;58098;51.680;5.134;2023-02-26T04:26:46;10.40;;;3.03;;
70545;SDS011;58098;51.680;5.134;2023-02-26T04:29:11;15.67;;;2.57;;
70545;SDS011;58098;51.680;5.134;2023-02-26T04:31:37;6.23;;;2.10;;
70545;SDS011;58098;51.680;5.134;2023-02-26T04:34:02;7.07;;;2.20;;
70545;SDS011;58098;51.680;5.134;2023-02-26T04:36:28;7.10;;;2.17;;
70545;SDS011;58098;51.680;5.134;2023-02-26T04:38:53;3.08;;;2.17;;
70545;SDS011;58098;51.680;5.134;2023-02-26T04:41:19;7.90;;;2.07;;
70545;SDS011;58098;51.680;5.134;2023-02-26T04:43:45;6.00;;;2.22;;
70545;SDS011;58098;51.680;5.134;2023-02-26T04:46:10;5.03;;;2.10;;
70545;SDS011;58098;51.680;5.134;2023-02-26T04:48:35;4.53;;;2.03;;
70545;SDS011;58098;51.680;5.134;2023-02-26T04:51:01;4.50;;;2.20;;
70545;SDS011;58098;51.680;5.134;2023-02-26T04:53:26;8.90;;;2.57;;
70545;SDS011;58098;51.680;5.134;2023-02-26T04:55:51;4.60;;;2.20;;
70545;SDS011;58098;51.680;5.134;2023-02-26T04:58:17;5.13;;;1.77;;
70545;SDS011;58098;51.680;5.134;2023-02-26T05:00:42;7.73;;;2.00;;
70545;SDS011;58098;51.680;5.134;2023-02-26T05:03:11;4.63;;;1.95;;
70545;SDS011;58098;51.680;5.134;2023-02-26T05:05:37;3.00;;;2.10;;
70545;SDS011;58098;51.680;5.134;2023-02-26T05:08:02;6.50;;;2.17;;
70545;SDS011;58098;51.680;5.134;2023-02-26T05:10:28;3.67;;;1.73;;
70545;SDS011;58098;51.680;5.134;2023-02-26T05:12:53;6.83;;;1.90;;
70545;SDS011;58098;51.680;5.134;2023-02-26T05:15:18;3.27;;;1.73;;
70545;SDS011;58098;51.680;5.134;2023-02-26T05:17:44;9.60;;;2.40;;
70545;SDS011;58098;51.680;5.134;2023-02-26T05:20:09;3.90;;;1.80;;
70545;SDS011;58098;51.680;5.134;2023-02-26T05:22:36;8.05;;;1.83;;
70545;SDS011;58098;51.680;5.134;2023-02-26T05:25:02;5.13;;;2.10;;
70545;SDS011;58098;51.680;5.134;2023-02-26T05:27:28;5.65;;;1.80;;
70545;SDS011;58098;51.680;5.134;2023-02-26T05:29:54;7.50;;;2.53;;
70545;SDS011;58098;51.680;5.134;2023-02-26T05:32:19;2.77;;;1.43;;
70545;SDS011;58098;51.680;5.134;2023-02-26T05:34:45;5.03;;;1.90;;
70545;SDS011;58098;51.680;5.134;2023-02-26T05:37:10;5.47;;;1.80;;
70545;SDS011;58098;51.680;5.134;2023-02-26T05:39:35;4.27;;;1.73;;
70545;SDS011;58098;51.680;5.134;2023-02-26T05:42:01;4.30;;;1.58;;
70545;SDS011;58098;51.680;5.134;2023-02-26T05:44:26;5.67;;;2.20;;
70545;SDS011;58098;51.680;5.134;2023-02-26T05:46:52;8.80;;;2.10;;
70545;SDS011;58098;51.680;5.134;2023-02-26T05:49:17;5.23;;;2.23;;
70545;SDS011;58098;51.680;5.134;2023-02-26T05:51:42;3.83;;;2.23;;
70545;SDS011;58098;51.680;5.134;2023-02-26T05:54:08;4.78;;;1.75;;
70545;SDS011;58098;51.680;5.134;2023-02-26T05:56:34;8.00;;;2.13;;
70545;SDS011;58098;51.680;5.134;2023-02-26T05:59:00;8.65;;;2.08;;
70545;SDS011;58098;51.680;5.134;2023-02-26T06:01:26;3.50;;;1.85;;
70545;SDS011;58098;51.680;5.134;2023-02-26T06:03:51;6.87;;;1.97;;
70545;SDS011;58098;51.680;5.134;2023-02-26T06:06:17;4.13;;;1.93;;
70545;SDS011;58098;51.680;5.134;2023-02-26T06:08:43;2.80;;;2.03;;
70545;SDS011;58098;51.680;5.134;2023-02-26T06:11:08;5.22;;;2.25;;
70545;SDS011;58098;51.680;5.134;2023-02-26T06:13:34;4.80;;;1.93;;
70545;SDS011;58098;51.680;5.134;2023-02-26T06:15:59;7.37;;;1.70;;
70545;SDS011;58098;51.680;5.134;2023-02-26T06:18:25;4.83;;;1.90;;
70545;SDS011;58098;51.680;5.134;2023-02-26T06:20:50;3.78;;;2.00;;
70545;SDS011;58098;51.680;5.134;2023-02-26T06:23:16;2.90;;;1.90;;
70545;SDS011;58098;51.680;5.134;2023-02-26T06:25:41;5.55;;;1.40;;
70545;SDS011;58098;51.680;5.134;2023-02-26T06:28:07;5.47;;;1.80;;
70545;SDS011;58098;51.680;5.134;2023-02-26T06:30:33;6.20;;;1.90;;
70545;SDS011;58098;51.680;5.134;2023-02-26T06:32:59;2.53;;;1.50;;
70545;SDS011;58098;51.680;5.134;2023-02-26T06:35:25;4.10;;;2.00;;
70545;SDS011;58098;51.680;5.134;2023-02-26T06:37:53;5.37;;;1.90;;
70545;SDS011;58098;51.680;5.134;2023-02-26T06:40:19;4.20;;;1.70;;
70545;SDS011;58098;51.680;5.134;2023-02-26T06:42:44;4.80;;;1.67;;
70545;SDS011;58098;51.680;5.134;2023-02-26T06:45:10;2.83;;;1.57;;
70545;SDS011;58098;51.680;5.134;2023-02-26T06:47:35;4.60;;;1.50;;
70545;SDS011;58098;51.680;5.134;2023-02-26T06:50:00;8.37;;;1.80;;
70545;SDS011;58098;51.680;5.134;2023-02-26T06:52:27;4.13;;;1.67;;
70545;SDS011;58098;51.680;5.134;2023-02-26T06:54:53;4.30;;;1.80;;
70545;SDS011;58098;51.680;5.134;2023-02-26T06:57:18;2.57;;;1.80;;
70545;SDS011;58098;51.680;5.134;2023-02-26T06:59:44;4.37;;;1.60;;
70545;SDS011;58098;51.680;5.134;2023-02-26T07:02:16;6.23;;;1.80;;
70545;SDS011;58098;51.680;5.134;2023-02-26T07:04:43;5.65;;;1.80;;
70545;SDS011;58098;51.680;5.134;2023-02-26T07:07:09;7.30;;;1.57;;
70545;SDS011;58098;51.680;5.134;2023-02-26T07:09:34;4.70;;;2.07;;
70545;SDS011;58098;51.680;5.134;2023-02-26T07:12:00;3.50;;;1.83;;
70545;SDS011;58098;51.680;5.134;2023-02-26T07:14:25;3.73;;;1.80;;
70545;SDS011;58098;51.680;5.134;2023-02-26T07:16:51;4.80;;;1.77;;
70545;SDS011;58098;51.680;5.134;2023-02-26T07:19:16;4.73;;;1.90;;
70545;SDS011;58098;51.680;5.134;2023-02-26T07:21:41;4.30;;;1.53;;
70545;SDS011;58098;51.680;5.134;2023-02-26T07:24:06;5.70;;;1.63;;
70545;SDS011;58098;51.680;5.134;2023-02-26T07:26:32;3.35;;;1.95;;
70545;SDS011;58098;51.680;5.134;2023-02-26T07:28:57;3.30;;;1.53;;
70545;SDS011;58098;51.680;5.134;2023-02-26T07:31:23;6.00;;;1.60;;
70545;SDS011;58098;51.680;5.134;2023-02-26T07:33:48;4.40;;;2.37;;
70545;SDS011;58098;51.680;5.134;2023-02-26T07:36:13;8.60;;;2.00;;
70545;SDS011;58098;51.680;5.134;2023-02-26T07:38:39;4.97;;;1.80;;
70545;SDS011;58098;51.680;5.134;2023-02-26T07:41:04;1.73;;;1.57;;
70545;SDS011;58098;51.680;5.134;2023-02-26T07:43:29;8.50;;;2.20;;
70545;SDS011;58098;51.680;5.134;2023-02-26T07:45:55;4.53;;;1.87;;
70545;SDS011;58098;51.680;5.134;2023-02-26T07:48:20;6.70;;;1.63;;
70545;SDS011;58098;51.680;5.134;2023-02-26T07:50:45;8.40;;;2.47;;
70545;SDS011;58098;51.680;5.134;2023-02-26T07:53:13;4.43;;;1.90;;
70545;SDS011;58098;51.680;5.134;2023-02-26T07:55:39;4.45;;;2.20;;
70545;SDS011;58098;51.680;5.134;2023-02-26T07:58:04;2.70;;;1.80;;
70545;SDS011;58098;51.680;5.134;2023-02-26T08:00:29;6.37;;;1.97;;
70545;SDS011;58098;51.680;5.134;2023-02-26T08:02:55;4.43;;;2.07;;
70545;SDS011;58098;51.680;5.134;2023-02-26T08:05:20;3.63;;;2.00;;
70545;SDS011;58098;51.680;5.134;2023-02-26T08:07:45;3.53;;;2.27;;
70545;SDS011;58098;51.680;5.134;2023-02-26T08:10:11;1.87;;;1.50;;
70545;SDS011;58098;51.680;5.134;2023-02-26T08:12:37;19.87;;;2.43;;
70545;SDS011;58098;51.680;5.134;2023-02-26T08:15:03;2.75;;;2.03;;
70545;SDS011;58098;51.680;5.134;2023-02-26T08:17:29;2.25;;;2.03;;
70545;SDS011;58098;51.680;5.134;2023-02-26T08:19:55;3.87;;;2.23;;
70545;SDS011;58098;51.680;5.134;2023-02-26T08:22:20;9.90;;;2.00;;
70545;SDS011;58098;51.680;5.134;2023-02-26T08:24:47;5.57;;;2.15;;
70545;SDS011;58098;51.680;5.134;2023-02-26T08:27:13;4.83;;;1.90;;
70545;SDS011;58098;51.680;5.134;2023-02-26T08:29:38;5.33;;;2.00;;
70545;SDS011;58098;51.680;5.134;2023-02-26T08:32:03;4.47;;;2.00;;
70545;SDS011;58098;51.680;5.134;2023-02-26T08:34:29;3.97;;;2.13;;
70545;SDS011;58098;51.680;5.134;2023-02-26T08:36:54;5.93;;;1.88;;
70545;SDS011;58098;51.680;5.134;2023-02-26T08:39:19;8.40;;;2.20;;
70545;SDS011;58098;51.680;5.134;2023-02-26T08:41:44;3.50;;;1.93;;
70545;SDS011;58098;51.680;5.134;2023-02-26T08:44:10;7.30;;;2.53;;
70545;SDS011;58098;51.680;5.134;2023-02-26T08:46:35;4.77;;;2.10;;
70545;SDS011;58098;51.680;5.134;2023-02-26T08:49:00;3.97;;;2.00;;
70545;SDS011;58098;51.680;5.134;2023-02-26T08:51:26;4.80;;;2.20;;
70545;SDS011;58098;51.680;5.134;2023-02-26T08:53:51;7.83;;;2.40;;
70545;SDS011;58098;51.680;5.134;2023-02-26T08:56:17;5.65;;;1.85;;
70545;SDS011;58098;51.680;5.134;2023-02-26T08:58:43;4.77;;;2.07;;
70545;SDS011;58098;51.680;5.134;2023-02-26T09:01:08;4.78;;;1.98;;
70545;SDS011;58098;51.680;5.134;2023-02-26T09:03:34;4.53;;;1.80;;
70545;SDS011;58098;51.680;5.134;2023-02-26T09:06:00;2.38;;;1.95;;
70545;SDS011;58098;51.680;5.134;2023-02-26T09:08:25;3.70;;;1.97;;
70545;SDS011;58098;51.680;5.134;2023-02-26T09:10:51;3.63;;;1.83;;
70545;SDS011;58098;51.680;5.134;2023-02-26T09:13:16;4.23;;;1.67;;
70545;SDS011;58098;51.680;5.134;2023-02-26T09:15:41;5.27;;;2.37;;
70545;SDS011;58098;51.680;5.134;2023-02-26T09:18:07;3.77;;;1.90;;
70545;SDS011;58098;51.680;5.134;2023-02-26T09:20:39;5.05;;;1.90;;
70545;SDS011;58098;51.680;5.134;2023-02-26T09:23:08;8.32;;;1.80;;
70545;SDS011;58098;51.680;5.134;2023-02-26T09:25:34;6.30;;;2.03;;
70545;SDS011;58098;51.680;5.134;2023-02-26T09:27:59;3.60;;;1.70;;
70545;SDS011;58098;51.680;5.134;2023-02-26T09:30:24;4.63;;;1.93;;
70545;SDS011;58098;51.680;5.134;2023-02-26T09:32:50;7.00;;;2.47;;
70545;SDS011;58098;51.680;5.134;2023-02-26T09:35:15;8.30;;;1.80;;
70545;SDS011;58098;51.680;5.134;2023-02-26T09:37:40;1.80;;;1.50;;
70545;SDS011;58098;51.680;5.134;2023-02-26T09:40:06;4.83;;;1.80;;
70545;SDS011;58098;51.680;5.134;2023-02-26T09:45:40;5.78;;;1.55;;
70545;SDS011;58098;51.680;5.134;2023-02-26T09:48:10;4.78;;;2.20;;
70545;SDS011;58098;51.680;5.134;2023-02-26T09:50:40;3.08;;;2.15;;
70545;SDS011;58098;51.680;5.134;2023-02-26T09:53:12;4.33;;;1.87;;
70545;SDS011;58098;51.680;5.134;2023-02-26T09:55:44;3.45;;;1.80;;
70545;SDS011;58098;51.680;5.134;2023-02-26T09:58:19;3.58;;;2.13;;
70545;SDS011;58098;51.680;5.134;2023-02-26T10:06:26;3.77;;;1.70;;
70545;SDS011;58098;51.680;5.134;2023-02-26T10:11:46;6.80;;;1.83;;
70545;SDS011;58098;51.680;5.134;2023-02-26T10:17:18;2.47;;;1.73;;
70545;SDS011;58098;51.680;5.134;2023-02-26T10:19:56;6.13;;;1.67;;
70545;SDS011;58098;51.680;5.134;2023-02-26T10:25:19;4.25;;;1.73;;
70545;SDS011;58098;51.680;5.134;2023-02-26T10:30:33;4.82;;;1.30;;
70545;SDS011;58098;51.680;5.134;2023-02-26T10:33:11;4.17;;;1.33;;
70545;SDS011;58098;51.680;5.134;2023-02-26T10:35:44;3.15;;;1.70;;
70545;SDS011;58098;51.680;5.134;2023-02-26T10:38:17;5.00;;;1.60;;
70545;SDS011;58098;51.680;5.134;2023-02-26T10:41:08;3.72;;;1.30;;
70545;SDS011;58098;51.680;5.134;2023-02-26T10:43:40;3.88;;;1.63;;
70545;SDS011;58098;51.680;5.134;2023-02-26T10:46:20;2.57;;;1.20;;
70545;SDS011;58098;51.680;5.134;2023-02-26T10:51:47;4.18;;;1.38;;
70545;SDS011;58098;51.680;5.134;2023-02-26T10:56:57;2.90;;;1.30;;
70545;SDS011;58098;51.680;5.134;2023-02-26T10:59:22;3.60;;;1.57;;
70545;SDS011;58098;51.680;5.134;2023-02-26T11:01:48;3.13;;;1.33;;
70545;SDS011;58098;51.680;5.134;2023-02-26T11:04:17;2.40;;;1.40;;
70545;SDS011;58098;51.680;5.134;2023-02-26T11:06:48;2.72;;;1.20;;
70545;SDS011;58098;51.680;5.134;2023-02-26T11:12:15;1.90;;;1.40;;
70545;SDS011;58098;51.680;5.134;2023-02-26T11:14:43;3.85;;;1.50;;
70545;SDS011;58098;51.680;5.134;2023-02-26T11:17:11;6.78;;;1.67;;
70545;SDS011;58098;51.680;5.134;2023-02-26T11:19:41;2.28;;;1.52;;
70545;SDS011;58098;51.680;5.134;2023-02-26T11:22:14;3.63;;;1.50;;
70545;SDS011;58098;51.680;5.134;2023-02-26T11:24:40;2.60;;;1.60;;
70545;SDS011;58098;51.680;5.134;2023-02-26T11:27:12;5.95;;;1.90;;
70545;SDS011;58098;51.680;5.134;2023-02-26T11:29:41;3.75;;;1.67;;
70545;SDS011;58098;51.680;5.134;2023-02-26T11:32:29;7.03;;;1.50;;
70545;SDS011;58098;51.680;5.134;2023-02-26T11:34:57;1.80;;;1.33;;
70545;SDS011;58098;51.680;5.134;2023-02-26T11:37:23;6.53;;;1.87;;
70545;SDS011;58098;51.680;5.134;2023-02-26T11:39:58;2.80;;;1.48;;
70545;SDS011;58098;51.680;5.134;2023-02-26T11:42:49;2.13;;;1.48;;
70545;SDS011;58098;51.680;5.134;2023-02-26T11:45:18;2.50;;;1.50;;
70545;SDS011;58098;51.680;5.134;2023-02-26T11:47:45;2.17;;;1.70;;
70545;SDS011;58098;51.680;5.134;2023-02-26T11:50:18;2.37;;;1.77;;
70545;SDS011;58098;51.680;5.134;2023-02-26T11:52:47;4.90;;;1.88;;
70545;SDS011;58098;51.680;5.134;2023-02-26T11:55:26;4.68;;;1.60;;
70545;SDS011;58098;51.680;5.134;2023-02-26T11:57:54;2.30;;;1.70;;
70545;SDS011;58098;51.680;5.134;2023-02-26T12:00:25;2.85;;;1.77;;
70545;SDS011;58098;51.680;5.134;2023-02-26T12:02:57;3.57;;;1.40;;
70545;SDS011;58098;51.680;5.134;2023-02-26T12:05:26;4.25;;;1.83;;
70545;SDS011;58098;51.680;5.134;2023-02-26T12:07:51;1.93;;;1.77;;
70545;SDS011;58098;51.680;5.134;2023-02-26T12:10:17;4.13;;;1.50;;
70545;SDS011;58098;51.680;5.134;2023-02-26T12:24:09;4.00;;;1.90;;
70545;SDS011;58098;51.680;5.134;2023-02-26T12:27:10;3.70;;;2.10;;
70545;SDS011;58098;51.680;5.134;2023-02-26T12:57:00;2.55;;;1.48;;
70545;SDS011;58098;51.680;5.134;2023-02-26T12:59:40;3.10;;;1.60;;
70545;SDS011;58098;51.680;5.134;2023-02-26T13:02:21;5.07;;;1.58;;
70545;SDS011;58098;51.680;5.134;2023-02-26T13:21:37;4.00;;;1.33;;
70545;SDS011;58098;51.680;5.134;2023-02-26T13:24:14;3.15;;;1.50;;
70545;SDS011;58098;51.680;5.134;2023-02-26T13:26:46;5.60;;;1.50;;
70545;SDS011;58098;51.680;5.134;2023-02-26T13:29:26;2.00;;;1.52;;
70545;SDS011;58098;51.680;5.134;2023-02-26T13:32:00;5.03;;;1.63;;
70545;SDS011;58098;51.680;5.134;2023-02-26T13:34:44;2.58;;;1.40;;
70545;SDS011;58098;51.680;5.134;2023-02-26T13:37:25;2.47;;;1.60;;
70545;SDS011;58098;51.680;5.134;2023-02-26T13:40:00;1.73;;;1.60;;
70545;SDS011;58098;51.680;5.134;2023-02-26T13:42:41;3.30;;;1.50;;
70545;SDS011;58098;51.680;5.134;2023-02-26T13:48:16;1.63;;;1.40;;
70545;SDS011;58098;51.680;5.134;2023-02-26T13:55:50;1.88;;;1.52;;
70545;SDS011;58098;51.680;5.134;2023-02-26T14:04:25;2.13;;;1.38;;
70545;SDS011;58098;51.680;5.134;2023-02-26T14:09:15;1.58;;;1.42;;
70545;SDS011;58098;51.680;5.134;2023-02-26T14:14:30;3.83;;;1.43;;
70545;SDS011;58098;51.680;5.134;2023-02-26T14:22:57;2.50;;;1.60;;
70545;SDS011;58098;51.680;5.134;2023-02-26T14:27:44;2.13;;;1.57;;
70545;SDS011;58098;51.680;5.134;2023-02-26T14:35:39;1.60;;;1.50;;
70545;SDS011;58098;51.680;5.134;2023-02-26T14:38:09;1.60;;;1.50;;
70545;SDS011;58098;51.680;5.134;2023-02-26T14:40:39;2.13;;;1.50;;
70545;SDS011;58098;51.680;5.134;2023-02-26T14:43:15;2.75;;;1.60;;
70545;SDS011;58098;51.680;5.134;2023-02-26T14:45:45;1.33;;;1.20;;
70545;SDS011;58098;51.680;5.134;2023-02-26T14:48:17;1.70;;;1.60;;
70545;SDS011;58098;51.680;5.134;2023-02-26T14:59:23;3.28;;;1.40;;
70545;SDS011;58098;51.680;5.134;2023-02-26T15:01:48;1.97;;;1.77;;
70545;SDS011;58098;51.680;5.134;2023-02-26T15:04:28;2.38;;;1.85;;
70545;SDS011;58098;51.680;5.134;2023-02-26T15:15:34;2.43;;;1.30;;
70545;SDS011;58098;51.680;5.134;2023-02-26T15:18:30;1.33;;;1.05;;
70545;SDS011;58098;51.680;5.134;2023-02-26T15:21:05;1.77;;;1.40;;
70545;SDS011;58098;51.680;5.134;2023-02-26T15:23:41;1.17;;;1.08;;
70545;SDS011;58098;51.680;5.134;2023-02-26T15:26:13;2.92;;;1.17;;
70545;SDS011;58098;51.680;5.134;2023-02-26T15:28:43;2.20;;;1.30;;
70545;SDS011;58098;51.680;5.134;2023-02-26T15:31:09;1.80;;;1.60;;
70545;SDS011;58098;51.680;5.134;2023-02-26T15:33:36;2.00;;;1.35;;
70545;SDS011;58098;51.680;5.134;2023-02-26T15:36:06;3.73;;;1.27;;
70545;SDS011;58098;51.680;5.134;2023-02-26T15:38:40;4.38;;;1.60;;
70545;SDS011;58098;51.680;5.134;2023-02-26T15:41:07;1.92;;;1.40;;
70545;SDS011;58098;51.680;5.134;2023-02-26T15:43:34;3.58;;;1.42;;
70545;SDS011;58098;51.680;5.134;2023-02-26T15:46:00;2.95;;;1.67;;
70545;SDS011;58098;51.680;5.134;2023-02-26T15:48:30;2.53;;;1.53;;
70545;SDS011;58098;51.680;5.134;2023-02-26T15:51:01;3.15;;;2.10;;
70545;SDS011;58098;51.680;5.134;2023-02-26T15:53:37;4.40;;;2.00;;
70545;SDS011;58098;51.680;5.134;2023-02-26T15:56:07;7.90;;;3.40;;
70545;SDS011;58098;51.680;5.134;2023-02-26T15:58:48;3.55;;;2.00;;
70545;SDS011;58098;51.680;5.134;2023-02-26T16:01:17;2.58;;;1.60;;
70545;SDS011;58098;51.680;5.134;2023-02-26T16:03:45;2.05;;;1.70;;
70545;SDS011;58098;51.680;5.134;2023-02-26T16:06:22;3.73;;;1.67;;
70545;SDS011;58098;51.680;5.134;2023-02-26T16:08:49;3.65;;;1.60;;
70545;SDS011;58098;51.680;5.134;2023-02-26T16:11:14;2.50;;;1.63;;
70545;SDS011;58098;51.680;5.134;2023-02-26T16:13:41;1.77;;;1.67;;
70545;SDS011;58098;51.680;5.134;2023-02-26T16:16:12;2.33;;;1.50;;
70545;SDS011;58098;51.680;5.134;2023-02-26T16:18:43;2.08;;;1.77;;
70545;SDS011;58098;51.680;5.134;2023-02-26T16:21:13;2.33;;;1.60;;
70545;SDS011;58098;51.680;5.134;2023-02-26T16:23:48;1.83;;;1.37;;
70545;SDS011;58098;51.680;5.134;2023-02-26T16:26:21;2.33;;;1.65;;
70545;SDS011;58098;51.680;5.134;2023-02-26T16:28:51;3.35;;;1.83;;
70545;SDS011;58098;51.680;5.134;2023-02-26T16:31:22;2.30;;;1.58;;
70545;SDS011;58098;51.680;5.134;2023-02-26T16:36:23;4.37;;;2.50;;
70545;SDS011;58098;51.680;5.134;2023-02-26T16:41:23;3.08;;;2.25;;
70545;SDS011;58098;51.680;5.134;2023-02-26T16:43:53;3.05;;;1.80;;
70545;SDS011;58098;51.680;5.134;2023-02-26T16:49:10;3.40;;;1.70;;
70545;SDS011;58098;51.680;5.134;2023-02-26T16:51:43;2.47;;;1.58;;
70545;SDS011;58098;51.680;5.134;2023-02-26T16:54:14;2.38;;;1.45;;
70545;SDS011;58098;51.680;5.134;2023-02-26T16:56:44;2.10;;;1.80;;
70545;SDS011;58098;51.680;5.134;2023-02-26T16:59:17;4.68;;;2.15;;
70545;SDS011;58098;51.680;5.134;2023-02-26T17:01:50;4.57;;;2.20;;
70545;SDS011;58098;51.680;5.134;2023-02-26T17:04:21;2.42;;;2.22;;
70545;SDS011;58098;51.680;5.134;2023-02-26T17:06:49;3.50;;;1.83;;
70545;SDS011;58098;51.680;5.134;2023-02-26T17:12:12;2.40;;;2.20;;
70545;SDS011;58098;51.680;5.134;2023-02-26T17:14:51;4.67;;;2.37;;
70545;SDS011;58098;51.680;5.134;2023-02-26T17:17:18;5.15;;;2.55;;
70545;SDS011;58098;51.680;5.134;2023-02-26T17:19:44;4.47;;;2.40;;
70545;SDS011;58098;51.680;5.134;2023-02-26T17:22:11;6.03;;;2.50;;
70545;SDS011;58098;51.680;5.134;2023-02-26T17:24:40;5.47;;;2.00;;
70545;SDS011;58098;51.680;5.134;2023-02-26T17:27:13;5.05;;;2.33;;
70545;SDS011;58098;51.680;5.134;2023-02-26T17:29:48;5.13;;;2.80;;
70545;SDS011;58098;51.680;5.134;2023-02-26T17:32:17;6.38;;;2.72;;
70545;SDS011;58098;51.680;5.134;2023-02-26T17:34:47;5.15;;;2.78;;
70545;SDS011;58098;51.680;5.134;2023-02-26T17:37:13;4.27;;;2.30;;
70545;SDS011;58098;51.680;5.134;2023-02-26T17:39:39;3.85;;;1.83;;
70545;SDS011;58098;51.680;5.134;2023-02-26T17:42:12;5.22;;;3.00;;
70545;SDS011;58098;51.680;5.134;2023-02-26T17:44:39;3.65;;;2.95;;
70545;SDS011;58098;51.680;5.134;2023-02-26T17:47:08;4.95;;;2.67;;
70545;SDS011;58098;51.680;5.134;2023-02-26T17:49:38;7.90;;;3.10;;
70545;SDS011;58098;51.680;5.134;2023-02-26T17:52:03;7.37;;;2.73;;
70545;SDS011;58098;51.680;5.134;2023-02-26T17:54:29;4.50;;;2.83;;
70545;SDS011;58098;51.680;5.134;2023-02-26T17:56:54;3.90;;;2.83;;
70545;SDS011;58098;51.680;5.134;2023-02-26T17:59:20;3.87;;;2.40;;
70545;SDS011;58098;51.680;5.134;2023-02-26T18:01:45;5.50;;;2.70;;
70545;SDS011;58098;51.680;5.134;2023-02-26T18:04:10;5.47;;;2.17;;
70545;SDS011;58098;51.680;5.134;2023-02-26T18:06:37;4.90;;;2.53;;
70545;SDS011;58098;51.680;5.134;2023-02-26T18:09:03;3.15;;;2.28;;